Time;durP1;ratioP1;P1;durP2;ratioP2;P2;SDS_P1;SDS_P2;PMS_P1;PMS_P2;Temp;Humidity;BMP_temperature;BMP_pressure;BME280_temperature;BME280_humidity;BME280_pressure;Samples;Min_cycle;Max_cycle;Signal;HPM_P1;HPM_P2
2023/04/23 00:00:39;;;;;;;44.85;12.25;;;;;;;;;;6131622;23;20026;-83
2023/04/23 00:03:09;;;;;;;33.03;12.45;;;;;;;;;;6116691;23;20040;-84
2023/04/23 00:05:36;;;;;;;27.70;11.65;;;;;;;;;;6144437;23;20053;-87
2023/04/23 00:08:02;;;;;;;25.05;12.25;;;;;;;;;;6140052;23;20016;-88
2023/04/23 00:10:28;;;;;;;21.08;10.65;;;;;;;;;;6142938;23;20017;-86
2023/04/23 00:12:54;;;;;;;27.50;13.15;;;;;;;;;;6149568;23;20040;-85
2023/04/23 00:15:21;;;;;;;32.47;12.50;;;;;;;;;;6153268;23;20005;-87
2023/04/23 00:17:47;;;;;;;32.55;12.32;;;;;;;;;;6123486;23;20022;-86
2023/04/23 00:20:16;;;;;;;21.58;11.73;;;;;;;;;;6129066;23;20049;-86
2023/04/23 00:22:42;;;;;;;34.78;13.82;;;;;;;;;;6151841;23;20037;-85
2023/04/23 00:25:09;;;;;;;38.75;14.27;;;;;;;;;;6123385;23;20022;-84
2023/04/23 00:27:35;;;;;;;33.60;13.63;;;;;;;;;;6124538;23;20017;-85
2023/04/23 00:30:02;;;;;;;42.47;13.57;;;;;;;;;;6147564;23;20017;-86
2023/04/23 00:32:34;;;;;;;37.95;12.60;;;;;;;;;;6119071;23;20022;-84
2023/04/23 00:35:01;;;;;;;32.53;12.90;;;;;;;;;;6091013;23;20061;-83
2023/04/23 00:37:31;;;;;;;42.28;12.88;;;;;;;;;;6123172;23;20024;-83
2023/04/23 00:39:57;;;;;;;40.67;14.82;;;;;;;;;;6099394;23;20076;-82
2023/04/23 00:42:23;;;;;;;28.45;14.75;;;;;;;;;;6149151;23;20013;-85
2023/04/23 00:44:49;;;;;;;42.38;14.85;;;;;;;;;;6076899;23;20014;-84
2023/04/23 00:47:16;;;;;;;35.45;14.00;;;;;;;;;;6149316;23;20010;-85
2023/04/23 00:49:42;;;;;;;39.20;14.88;;;;;;;;;;6101801;23;20014;-84
2023/04/23 00:52:08;;;;;;;28.45;13.18;;;;;;;;;;6100309;23;20010;-83
2023/04/23 00:54:35;;;;;;;35.83;14.77;;;;;;;;;;6124589;23;20073;-84
2023/04/23 00:57:02;;;;;;;32.50;14.10;;;;;;;;;;6123420;23;20087;-85
2023/04/23 00:59:28;;;;;;;38.13;14.20;;;;;;;;;;6124054;23;20001;-83
2023/04/23 01:01:54;;;;;;;31.42;14.52;;;;;;;;;;6098648;23;20070;-84
2023/04/23 01:04:21;;;;;;;38.00;13.52;;;;;;;;;;6141706;23;20018;-83
2023/04/23 01:06:47;;;;;;;29.27;13.98;;;;;;;;;;6141951;23;20046;-82
2023/04/23 01:09:14;;;;;;;38.30;14.68;;;;;;;;;;6141457;23;20034;-83
2023/04/23 01:11:41;;;;;;;34.00;14.05;;;;;;;;;;6090199;23;20101;-83
2023/04/23 01:14:08;;;;;;;31.73;14.25;;;;;;;;;;6138543;23;20462;-83
2023/04/23 01:16:34;;;;;;;32.75;14.77;;;;;;;;;;6115979;23;20024;-84
2023/04/23 01:19:01;;;;;;;37.03;15.50;;;;;;;;;;6148824;23;20061;-86
2023/04/23 01:21:27;;;;;;;27.98;14.20;;;;;;;;;;6149748;23;20066;-82
2023/04/23 01:23:53;;;;;;;33.33;14.95;;;;;;;;;;6152041;23;20009;-86
2023/04/23 01:26:20;;;;;;;33.30;15.80;;;;;;;;;;6128269;23;20013;-85
2023/04/23 01:28:46;;;;;;;32.70;14.07;;;;;;;;;;6126509;23;20493;-86
2023/04/23 01:31:13;;;;;;;44.53;14.82;;;;;;;;;;6148128;23;20025;-86
2023/04/23 01:33:42;;;;;;;34.88;15.02;;;;;;;;;;6123024;23;20014;-88
2023/04/23 01:36:08;;;;;;;37.55;15.50;;;;;;;;;;6117465;23;20014;-85
2023/04/23 01:38:34;;;;;;;28.20;15.35;;;;;;;;;;6094773;23;20014;-87
2023/04/23 01:41:00;;;;;;;40.47;15.95;;;;;;;;;;6118937;23;20014;-86
2023/04/23 01:43:26;;;;;;;44.83;15.43;;;;;;;;;;6123610;23;20017;-88
2023/04/23 01:45:52;;;;;;;40.60;16.00;;;;;;;;;;6152594;23;20029;-88
2023/04/23 01:48:18;;;;;;;38.00;15.50;;;;;;;;;;6152807;23;20029;-86
2023/04/23 01:50:44;;;;;;;40.28;15.65;;;;;;;;;;6152680;23;20065;-87
2023/04/23 01:53:10;;;;;;;27.35;13.57;;;;;;;;;;6152634;23;19998;-86
2023/04/23 01:55:39;;;;;;;37.13;14.00;;;;;;;;;;6151227;23;20014;-86
2023/04/23 01:58:06;;;;;;;30.08;14.45;;;;;;;;;;6123756;23;20014;-86
2023/04/23 02:00:32;;;;;;;27.88;14.27;;;;;;;;;;6123657;23;20017;-84
2023/04/23 02:02:58;;;;;;;39.30;13.98;;;;;;;;;;6149245;23;19998;-84
2023/04/23 02:05:25;;;;;;;25.40;13.98;;;;;;;;;;6148559;23;20032;-88
2023/04/23 02:07:51;;;;;;;46.47;19.70;;;;;;;;;;6103450;23;19994;-86
2023/04/23 02:10:17;;;;;;;47.03;20.27;;;;;;;;;;6127660;23;20022;-88
2023/04/23 02:12:45;;;;;;;43.88;20.88;;;;;;;;;;6116749;23;20021;-87
2023/04/23 02:15:11;;;;;;;55.78;25.13;;;;;;;;;;6127647;23;20357;-85
2023/04/23 02:17:57;;;;;;;42.40;22.08;;;;;;;;;;6091427;23;20045;-85
2023/04/23 02:20:24;;;;;;;30.85;15.40;;;;;;;;;;6151883;23;20124;-87
2023/04/23 02:22:50;;;;;;;45.38;18.92;;;;;;;;;;6149549;23;20022;-84
2023/04/23 02:25:17;;;;;;;37.83;16.95;;;;;;;;;;6150084;23;20033;-84
2023/04/23 02:27:43;;;;;;;42.15;18.20;;;;;;;;;;6127165;23;20013;-86
2023/04/23 02:30:10;;;;;;;38.38;17.15;;;;;;;;;;6151883;23;20018;-86
2023/04/23 02:32:37;;;;;;;42.08;17.85;;;;;;;;;;6125844;23;19994;-87
2023/04/23 02:35:05;;;;;;;55.72;19.65;;;;;;;;;;6149963;23;20005;-87
2023/04/23 02:37:32;;;;;;;40.92;18.98;;;;;;;;;;6150451;23;20021;-88
2023/04/23 02:39:59;;;;;;;38.20;18.45;;;;;;;;;;6103228;23;20052;-87
2023/04/23 02:42:25;;;;;;;41.25;18.98;;;;;;;;;;6127297;23;20002;-86
2023/04/23 02:44:52;;;;;;;40.90;18.83;;;;;;;;;;6151893;23;20026;-87
2023/04/23 02:47:19;;;;;;;40.33;19.40;;;;;;;;;;6128068;23;19994;-86
2023/04/23 02:49:45;;;;;;;47.67;18.05;;;;;;;;;;6127459;23;19998;-87
2023/04/23 02:52:11;;;;;;;31.75;15.25;;;;;;;;;;6152058;23;20020;-86
2023/04/23 02:54:37;;;;;;;32.20;16.83;;;;;;;;;;6150801;23;20038;-88
2023/04/23 02:57:05;;;;;;;34.83;14.50;;;;;;;;;;6125588;23;20061;-87
2023/04/23 02:59:31;;;;;;;39.28;15.70;;;;;;;;;;6124396;23;20018;-87
2023/04/23 03:01:57;;;;;;;31.80;15.68;;;;;;;;;;6123167;23;20020;-86
2023/04/23 03:04:23;;;;;;;33.00;15.43;;;;;;;;;;6129871;23;20032;-85
2023/04/23 03:06:50;;;;;;;34.97;16.02;;;;;;;;;;6121872;23;20040;-84
2023/04/23 03:09:16;;;;;;;37.90;15.60;;;;;;;;;;6074107;23;20009;-85
2023/04/23 03:11:42;;;;;;;38.42;14.77;;;;;;;;;;6127397;23;19994;-87
2023/04/23 03:14:11;;;;;;;33.08;15.23;;;;;;;;;;6128933;23;20014;-86
2023/04/23 03:16:37;;;;;;;41.90;18.70;;;;;;;;;;6154462;23;20105;-87
2023/04/23 03:19:04;;;;;;;33.53;14.85;;;;;;;;;;6128707;23;20041;-86
2023/04/23 03:21:31;;;;;;;39.83;16.00;;;;;;;;;;6127863;23;20002;-85
2023/04/23 03:23:57;;;;;;;25.05;15.55;;;;;;;;;;6126540;23;20367;-85
2023/04/23 03:26:23;;;;;;;38.05;17.67;;;;;;;;;;6117655;23;20018;-87
2023/04/23 03:28:50;;;;;;;26.50;15.98;;;;;;;;;;6093720;23;20043;-86
2023/04/23 03:31:16;;;;;;;36.17;17.38;;;;;;;;;;6122193;23;20022;-85
2023/04/23 03:33:43;;;;;;;32.65;15.90;;;;;;;;;;6120443;23;20047;-85
2023/04/23 03:36:09;;;;;;;28.75;16.38;;;;;;;;;;6128330;23;20009;-84
2023/04/23 03:38:35;;;;;;;33.70;15.52;;;;;;;;;;6153821;23;20018;-86
2023/04/23 03:41:02;;;;;;;27.20;15.20;;;;;;;;;;6081429;23;20037;-88
2023/04/23 03:43:29;;;;;;;35.58;17.13;;;;;;;;;;6129352;23;20002;-86
2023/04/23 03:48:41;;;;;;;26.10;15.88;;;;;;;;;;6096197;23;20020;-87
2023/04/23 03:51:16;;;;;;;36.08;14.52;;;;;;;;;;6133743;23;20021;-83
2023/04/23 03:53:46;;;;;;;23.75;15.73;;;;;;;;;;6173553;23;20013;-84
2023/04/23 03:56:30;;;;;;;25.10;13.90;;;;;;;;;;6150641;23;20081;-82
2023/04/23 03:59:08;;;;;;;29.75;15.20;;;;;;;;;;6139787;23;20014;-79
2023/04/23 04:01:35;;;;;;;28.88;15.60;;;;;;;;;;6140441;23;20041;-80
2023/04/23 04:04:01;;;;;;;22.95;13.77;;;;;;;;;;6136966;23;20561;-79
2023/04/23 04:06:27;;;;;;;27.77;14.73;;;;;;;;;;6052882;23;20493;-75
2023/04/23 04:08:55;;;;;;;35.35;16.00;;;;;;;;;;6099666;23;20014;-80
2023/04/23 04:11:21;;;;;;;29.98;16.45;;;;;;;;;;6099371;23;20018;-80
2023/04/23 04:13:48;;;;;;;36.22;15.95;;;;;;;;;;6124740;23;20018;-81
2023/04/23 04:16:14;;;;;;;33.92;16.50;;;;;;;;;;6126430;23;20017;-81
2023/04/23 04:18:40;;;;;;;27.00;16.80;;;;;;;;;;6130046;23;20009;-82
2023/04/23 04:21:07;;;;;;;32.92;16.73;;;;;;;;;;6054934;23;20065;-81
2023/04/23 04:23:33;;;;;;;28.00;16.75;;;;;;;;;;6127877;23;20018;-81
2023/04/23 04:26:00;;;;;;;29.30;17.13;;;;;;;;;;6107560;23;20045;-79
2023/04/23 04:28:26;;;;;;;40.70;17.38;;;;;;;;;;6136181;23;20034;-79
2023/04/23 04:30:52;;;;;;;32.55;17.05;;;;;;;;;;6136526;23;20482;-80
2023/04/23 04:33:19;;;;;;;35.53;17.05;;;;;;;;;;6138319;23;20006;-79
2023/04/23 04:35:47;;;;;;;26.65;14.68;;;;;;;;;;6139103;23;20013;-81
2023/04/23 04:38:14;;;;;;;33.50;15.40;;;;;;;;;;6106295;23;20014;-80
2023/04/23 04:40:41;;;;;;;27.00;13.15;;;;;;;;;;6132772;23;20085;-80
2023/04/23 04:43:07;;;;;;;27.40;14.80;;;;;;;;;;6104054;23;20014;-80
2023/04/23 04:45:33;;;;;;;21.38;12.00;;;;;;;;;;6109896;23;20048;-78
2023/04/23 04:47:59;;;;;;;30.95;15.60;;;;;;;;;;6133599;23;20021;-77
2023/04/23 04:50:26;;;;;;;29.60;14.93;;;;;;;;;;6105315;23;20097;-79
2023/04/23 04:52:52;;;;;;;23.73;13.77;;;;;;;;;;6109206;23;20010;-78
2023/04/23 04:55:18;;;;;;;25.83;14.63;;;;;;;;;;6135617;23;20036;-78
2023/04/23 04:57:44;;;;;;;25.02;14.45;;;;;;;;;;6136976;23;20010;-78
2023/04/23 05:00:21;;;;;;;27.30;15.40;;;;;;;;;;6102721;23;20014;-78
2023/04/23 05:02:51;;;;;;;35.53;15.65;;;;;;;;;;6126834;23;20014;-79
2023/04/23 05:05:18;;;;;;;23.95;14.43;;;;;;;;;;6125039;23;20105;-78
2023/04/23 05:07:44;;;;;;;29.42;14.52;;;;;;;;;;6126809;23;20010;-79
2023/04/23 05:10:10;;;;;;;30.35;15.55;;;;;;;;;;6075769;23;20418;-79
2023/04/23 05:12:40;;;;;;;22.42;13.63;;;;;;;;;;6098548;23;20018;-79
2023/04/23 05:15:07;;;;;;;22.47;13.63;;;;;;;;;;6097513;23;20446;-80
2023/04/23 05:17:33;;;;;;;23.90;14.02;;;;;;;;;;6098766;23;20245;-78
2023/04/23 05:19:59;;;;;;;24.95;14.55;;;;;;;;;;6123529;23;20010;-79
2023/04/23 05:22:25;;;;;;;24.83;14.68;;;;;;;;;;6124278;23;20070;-80
2023/04/23 05:24:51;;;;;;;29.90;13.98;;;;;;;;;;6074194;23;20020;-79
2023/04/23 05:27:18;;;;;;;23.02;14.32;;;;;;;;;;6049989;23;20073;-78
2023/04/23 05:29:45;;;;;;;19.42;13.73;;;;;;;;;;6124050;23;20013;-79
2023/04/23 05:32:11;;;;;;;19.95;12.70;;;;;;;;;;6073765;23;20022;-79
2023/04/23 05:34:37;;;;;;;29.38;12.90;;;;;;;;;;6099323;23;20036;-78
2023/04/23 05:37:03;;;;;;;29.45;12.45;;;;;;;;;;6128391;23;20037;-79
2023/04/23 05:39:29;;;;;;;25.75;12.82;;;;;;;;;;6135290;23;20565;-80
2023/04/23 05:41:55;;;;;;;23.23;13.93;;;;;;;;;;6107771;23;20041;-81
2023/04/23 05:44:21;;;;;;;17.63;11.38;;;;;;;;;;6110911;23;20021;-80
2023/04/23 05:46:47;;;;;;;20.88;10.32;;;;;;;;;;6138289;23;20018;-77
2023/04/23 05:49:13;;;;;;;17.98;10.15;;;;;;;;;;6117564;23;20044;-81
2023/04/23 05:51:39;;;;;;;17.42;9.32;;;;;;;;;;6106286;23;20014;-81
2023/04/23 05:54:05;;;;;;;20.38;11.35;;;;;;;;;;6125091;23;20498;-81
2023/04/23 05:56:32;;;;;;;22.17;10.55;;;;;;;;;;6097990;23;20020;-80
2023/04/23 05:58:58;;;;;;;26.20;10.70;;;;;;;;;;6124032;23;20411;-79
2023/04/23 06:01:24;;;;;;;17.77;9.93;;;;;;;;;;6123561;23;20013;-78
2023/04/23 06:03:50;;;;;;;28.35;19.95;;;;;;;;;;6099020;23;20514;-79
2023/04/23 06:06:16;;;;;;;21.00;9.48;;;;;;;;;;6127668;23;20026;-79
2023/04/23 06:08:42;;;;;;;12.85;8.10;;;;;;;;;;6112185;23;20041;-80
2023/04/23 06:11:08;;;;;;;16.77;8.23;;;;;;;;;;6091643;23;20073;-82
2023/04/23 06:13:39;;;;;;;18.70;7.30;;;;;;;;;;6146919;23;20018;-80
2023/04/23 06:16:05;;;;;;;;;;;;;;;;;;6091993;23;20524;-79
2023/04/23 06:18:30;;;;;;;11.82;5.43;;;;;;;;;;6134863;23;19928;-81
2023/04/23 06:20:57;;;;;;;10.25;5.53;;;;;;;;;;6125719;23;20012;-79
2023/04/23 06:23:23;;;;;;;8.23;5.50;;;;;;;;;;6098420;23;20014;-80
2023/04/23 06:25:49;;;;;;;8.95;5.47;;;;;;;;;;6123364;23;20105;-81
2023/04/23 06:28:15;;;;;;;6.10;4.63;;;;;;;;;;6125061;23;20013;-82
2023/04/23 06:30:56;;;;;;;7.15;4.80;;;;;;;;;;6102664;23;20085;-83
2023/04/23 06:33:23;;;;;;;7.90;4.40;;;;;;;;;;6099532;23;20073;-83
2023/04/23 06:35:48;;;;;;;14.75;5.00;;;;;;;;;;6076165;23;20392;-82
2023/04/23 06:38:15;;;;;;;12.95;5.28;;;;;;;;;;6124782;23;20064;-83
2023/04/23 06:40:40;;;;;;;10.70;5.20;;;;;;;;;;6125429;23;20100;-83
2023/04/23 06:43:06;;;;;;;7.25;6.20;;;;;;;;;;6126894;23;20017;-84
2023/04/23 06:45:55;;;;;;;12.75;5.22;;;;;;;;;;6103733;23;20021;-83
2023/04/23 06:48:21;;;;;;;11.45;4.60;;;;;;;;;;6125805;23;20057;-82
2023/04/23 06:50:47;;;;;;;8.57;4.20;;;;;;;;;;6099253;23;20072;-81
2023/04/23 06:53:17;;;;;;;9.98;4.35;;;;;;;;;;6079896;23;20446;-82
2023/04/23 06:55:43;;;;;;;9.82;5.50;;;;;;;;;;6077683;23;20022;-82
2023/04/23 06:58:10;;;;;;;16.58;5.47;;;;;;;;;;6053086;23;20210;-82
2023/04/23 07:00:36;;;;;;;7.90;5.43;;;;;;;;;;6124572;23;20023;-71
2023/04/23 07:03:02;;;;;;;8.55;4.68;;;;;;;;;;6096219;23;20022;-76
2023/04/23 07:05:31;;;;;;;8.05;3.60;;;;;;;;;;6072384;23;20018;-76
2023/04/23 07:07:57;;;;;;;5.88;3.63;;;;;;;;;;6094449;23;20014;-75
2023/04/23 07:10:23;;;;;;;3.60;3.28;;;;;;;;;;6095480;23;20510;-74
2023/04/23 07:12:49;;;;;;;5.38;3.88;;;;;;;;;;6095254;23;20104;-73
2023/04/23 07:15:15;;;;;;;3.92;3.08;;;;;;;;;;6072001;23;20366;-73
2023/04/23 07:17:41;;;;;;;4.40;2.95;;;;;;;;;;6119350;23;20117;-73
2023/04/23 07:20:08;;;;;;;2.70;2.50;;;;;;;;;;6094821;23;20014;-73
2023/04/23 07:22:34;;;;;;;3.75;3.30;;;;;;;;;;6095872;23;20399;-73
2023/04/23 07:25:00;;;;;;;5.60;3.33;;;;;;;;;;6121453;23;20020;-74
2023/04/23 07:27:26;;;;;;;4.28;3.03;;;;;;;;;;6098414;23;20071;-73
2023/04/23 07:29:52;;;;;;;2.88;2.67;;;;;;;;;;6102664;23;20567;-74
2023/04/23 07:32:18;;;;;;;3.58;3.03;;;;;;;;;;6102393;23;20018;-74
2023/04/23 07:34:44;;;;;;;4.75;2.45;;;;;;;;;;6097505;23;20022;-73
2023/04/23 07:37:11;;;;;;;3.08;2.40;;;;;;;;;;6095347;23;20101;-73
2023/04/23 07:39:36;;;;;;;5.38;2.20;;;;;;;;;;6122699;23;20049;-73
2023/04/23 07:42:03;;;;;;;6.07;2.63;;;;;;;;;;6122005;23;20018;-73
2023/04/23 07:44:29;;;;;;;4.70;2.30;;;;;;;;;;6122407;23;20017;-74
2023/04/23 07:46:55;;;;;;;3.65;2.20;;;;;;;;;;6122206;23;20029;-73
2023/04/23 07:49:21;;;;;;;2.30;2.10;;;;;;;;;;6122629;23;20021;-73
2023/04/23 07:51:47;;;;;;;2.47;2.28;;;;;;;;;;6124169;23;20025;-73
2023/04/23 07:54:13;;;;;;;4.25;2.50;;;;;;;;;;6098082;23;20021;-74
2023/04/23 07:56:39;;;;;;;2.70;2.20;;;;;;;;;;6098233;23;20018;-74
2023/04/23 07:59:05;;;;;;;2.38;2.03;;;;;;;;;;6074384;23;20089;-73
2023/04/23 08:01:31;;;;;;;3.20;2.20;;;;;;;;;;6125954;23;20021;-74
2023/04/23 08:03:59;;;;;;;9.15;2.55;;;;;;;;;;6124528;23;20363;-74
2023/04/23 08:06:25;;;;;;;6.00;3.08;;;;;;;;;;6098589;23;20049;-73
2023/04/23 08:08:54;;;;;;;4.43;2.65;;;;;;;;;;6098604;23;20017;-74
2023/04/23 08:11:20;;;;;;;3.30;2.90;;;;;;;;;;6124079;23;20098;-73
2023/04/23 08:13:46;;;;;;;3.80;2.83;;;;;;;;;;6124380;23;20012;-73
2023/04/23 08:16:12;;;;;;;3.22;2.00;;;;;;;;;;6098102;23;20112;-73
2023/04/23 08:18:39;;;;;;;2.97;2.58;;;;;;;;;;6123986;23;20467;-74
2023/04/23 08:21:05;;;;;;;4.70;2.38;;;;;;;;;;6073107;23;20024;-73
2023/04/23 08:23:33;;;;;;;4.63;2.70;;;;;;;;;;6097919;23;20014;-73
2023/04/23 08:25:59;;;;;;;2.92;2.25;;;;;;;;;;6123806;23;20169;-73
2023/04/23 08:28:26;;;;;;;1.80;1.70;;;;;;;;;;6123863;23;20010;-74
2023/04/23 08:30:52;;;;;;;3.83;1.50;;;;;;;;;;6073817;23;20374;-73
2023/04/23 08:33:18;;;;;;;2.55;2.35;;;;;;;;;;6097516;23;20024;-73
2023/04/23 08:35:45;;;;;;;4.47;2.42;;;;;;;;;;6074072;23;20018;-73
2023/04/23 08:38:11;;;;;;;2.80;2.58;;;;;;;;;;6074031;23;20023;-74
2023/04/23 08:40:40;;;;;;;2.90;2.38;;;;;;;;;;6098842;23;20069;-74
2023/04/23 08:43:11;;;;;;;2.60;2.40;;;;;;;;;;6098473;23;20023;-73
2023/04/23 08:45:41;;;;;;;3.03;2.40;;;;;;;;;;6098773;23;20269;-73
2023/04/23 08:48:08;;;;;;;4.03;2.65;;;;;;;;;;6099122;23;20073;-74
2023/04/23 08:50:33;;;;;;;4.35;2.20;;;;;;;;;;6098601;23;20105;-73
2023/04/23 08:52:59;;;;;;;2.60;2.40;;;;;;;;;;6097763;23;20454;-73
2023/04/23 08:55:25;;;;;;;6.50;2.30;;;;;;;;;;6123442;23;20013;-73
2023/04/23 08:57:51;;;;;;;2.70;2.50;;;;;;;;;;6125090;23;20010;-73
2023/04/23 09:00:18;;;;;;;3.83;2.90;;;;;;;;;;6124237;23;20020;-73
2023/04/23 09:02:45;;;;;;;3.60;2.70;;;;;;;;;;6098723;23;20020;-73
2023/04/23 09:05:11;;;;;;;7.18;2.80;;;;;;;;;;6050444;23;20017;-73
2023/04/23 09:07:40;;;;;;;4.55;2.72;;;;;;;;;;6097843;23;20045;-73
2023/04/23 09:10:06;;;;;;;3.75;2.33;;;;;;;;;;6123326;23;20406;-73
2023/04/23 09:12:36;;;;;;;2.88;2.67;;;;;;;;;;6123527;23;20089;-74
2023/04/23 09:15:09;;;;;;;3.00;2.70;;;;;;;;;;6123502;23;20367;-75
2023/04/23 09:17:36;;;;;;;4.50;2.80;;;;;;;;;;6123380;23;20469;-74
2023/04/23 09:20:05;;;;;;;2.92;2.72;;;;;;;;;;6123191;23;20017;-73
2023/04/23 09:22:38;;;;;;;2.97;2.50;;;;;;;;;;6123352;23;20036;-73
2023/04/23 09:25:05;;;;;;;3.20;2.90;;;;;;;;;;6097169;23;20373;-73
2023/04/23 09:27:35;;;;;;;4.03;2.67;;;;;;;;;;6123354;23;20109;-74
2023/04/23 09:30:09;;;;;;;2.60;2.40;;;;;;;;;;6123845;23;20065;-73
2023/04/23 09:32:36;;;;;;;3.55;2.80;;;;;;;;;;6123417;23;20018;-73
2023/04/23 09:35:03;;;;;;;5.55;2.65;;;;;;;;;;6097562;23;20021;-74
2023/04/23 09:37:29;;;;;;;2.60;2.40;;;;;;;;;;6097234;23;20184;-74
2023/04/23 09:39:57;;;;;;;3.15;2.95;;;;;;;;;;6097175;23;20068;-73
2023/04/23 09:42:23;;;;;;;6.22;3.03;;;;;;;;;;6122877;23;20052;-73
2023/04/23 09:44:55;;;;;;;8.13;2.90;;;;;;;;;;6073856;23;20535;-73
2023/04/23 09:47:21;;;;;;;2.72;2.53;;;;;;;;;;6122732;23;20025;-73
2023/04/23 09:49:47;;;;;;;4.50;2.70;;;;;;;;;;6123295;23;20029;-74
2023/04/23 09:52:13;;;;;;;4.68;2.83;;;;;;;;;;6122862;23;20038;-74
2023/04/23 09:54:39;;;;;;;3.85;2.88;;;;;;;;;;6097541;23;20463;-74
2023/04/23 09:57:07;;;;;;;3.78;2.80;;;;;;;;;;6097599;23;20086;-74
2023/04/23 09:59:36;;;;;;;3.80;2.72;;;;;;;;;;6123349;23;20017;-74
2023/04/23 10:02:06;;;;;;;3.38;2.42;;;;;;;;;;6122893;23;20022;-74
2023/04/23 10:04:33;;;;;;;3.13;2.83;;;;;;;;;;6097445;23;20382;-73
2023/04/23 10:07:03;;;;;;;3.58;3.00;;;;;;;;;;6123930;23;20502;-73
2023/04/23 10:09:29;;;;;;;6.72;2.80;;;;;;;;;;6096808;23;20017;-73
2023/04/23 10:12:01;;;;;;;6.70;3.25;;;;;;;;;;6096860;23;20072;-72
2023/04/23 10:14:27;;;;;;;6.97;3.42;;;;;;;;;;6123262;23;20022;-73
2023/04/23 10:16:57;;;;;;;5.50;3.20;;;;;;;;;;6097303;23;20021;-74
2023/04/23 10:19:31;;;;;;;3.60;3.25;;;;;;;;;;6073012;23;20363;-74
2023/04/23 10:22:04;;;;;;;5.70;3.30;;;;;;;;;;6098933;23;20017;-74
2023/04/23 10:24:33;;;;;;;3.60;3.30;;;;;;;;;;6123174;23;20570;-74
2023/04/23 10:27:01;;;;;;;4.10;3.80;;;;;;;;;;6097427;23;20018;-75
2023/04/23 10:29:28;;;;;;;2.95;2.50;;;;;;;;;;6073956;23;20092;-74
2023/04/23 10:31:54;;;;;;;3.47;3.17;;;;;;;;;;6097895;23;20092;-74
2023/04/23 10:34:23;;;;;;;2.45;2.28;;;;;;;;;;6050032;23;20021;-74
2023/04/23 10:36:50;;;;;;;3.08;2.30;;;;;;;;;;6122938;23;20022;-73
2023/04/23 10:39:16;;;;;;;2.65;2.45;;;;;;;;;;6122552;23;20466;-74
2023/04/23 10:41:42;;;;;;;3.53;2.40;;;;;;;;;;6097993;23;20225;-73
2023/04/23 10:44:12;;;;;;;3.63;2.70;;;;;;;;;;6073192;23;20032;-74
2023/04/23 10:46:37;;;;;;;3.27;2.27;;;;;;;;;;6099520;23;20109;-74
2023/04/23 10:49:05;;;;;;;3.70;2.47;;;;;;;;;;6101309;23;20069;-74
2023/04/23 10:51:32;;;;;;;2.60;2.40;;;;;;;;;;6129751;23;20421;-74
2023/04/23 10:53:58;;;;;;;2.65;2.30;;;;;;;;;;6102413;23;20018;-74
2023/04/23 10:56:26;;;;;;;2.03;1.92;;;;;;;;;;6122758;23;20021;-74
2023/04/23 10:58:52;;;;;;;2.65;2.42;;;;;;;;;;6073625;23;20052;-73
2023/04/23 11:01:20;;;;;;;3.08;2.80;;;;;;;;;;6097482;23;20042;-74
2023/04/23 11:03:47;;;;;;;3.75;2.60;;;;;;;;;;6125763;23;20077;-73
2023/04/23 11:06:16;;;;;;;3.00;2.72;;;;;;;;;;6073555;23;20049;-74
2023/04/23 11:08:55;;;;;;;5.30;3.03;;;;;;;;;;6098082;23;20018;-73
2023/04/23 11:11:38;;;;;;;2.75;2.05;;;;;;;;;;6122397;23;20069;-73
2023/04/23 11:14:14;;;;;;;2.63;2.42;;;;;;;;;;6072647;23;20014;-73
2023/04/23 11:16:40;;;;;;;3.47;2.30;;;;;;;;;;6073154;23;20096;-73
2023/04/23 11:19:11;;;;;;;3.30;2.63;;;;;;;;;;6122603;23;20418;-73
2023/04/23 11:21:59;;;;;;;3.17;2.47;;;;;;;;;;6122210;23;20029;-73
2023/04/23 11:24:26;;;;;;;3.20;2.65;;;;;;;;;;6123535;23;20014;-73
2023/04/23 11:26:53;;;;;;;5.97;3.00;;;;;;;;;;6098943;23;20073;-73
2023/04/23 11:29:22;;;;;;;7.43;2.83;;;;;;;;;;6124455;23;20014;-73
2023/04/23 11:31:49;;;;;;;3.17;2.90;;;;;;;;;;6124493;23;20146;-73
2023/04/23 11:34:15;;;;;;;3.45;3.10;;;;;;;;;;6124598;23;20014;-73
2023/04/23 11:36:41;;;;;;;2.95;2.63;;;;;;;;;;6124980;23;20016;-73
2023/04/23 11:39:09;;;;;;;6.95;2.90;;;;;;;;;;6098723;23;20045;-73
2023/04/23 11:41:35;;;;;;;5.65;2.42;;;;;;;;;;6124388;23;20013;-73
2023/04/23 11:44:03;;;;;;;3.60;2.70;;;;;;;;;;6124372;23;20452;-73
2023/04/23 11:46:29;;;;;;;8.02;3.08;;;;;;;;;;6123905;23;20108;-73
2023/04/23 11:48:55;;;;;;;4.70;3.67;;;;;;;;;;6124052;23;20025;-73
2023/04/23 11:51:24;;;;;;;5.40;2.85;;;;;;;;;;6098493;23;20018;-73
2023/04/23 11:53:50;;;;;;;3.67;2.92;;;;;;;;;;6124509;23;20070;-73
2023/04/23 11:56:16;;;;;;;4.15;3.00;;;;;;;;;;6074906;23;20018;-73
2023/04/23 11:58:42;;;;;;;3.10;2.83;;;;;;;;;;6097883;23;20467;-73
2023/04/23 12:01:12;;;;;;;3.47;2.78;;;;;;;;;;6098577;23;20049;-73
2023/04/23 12:03:38;;;;;;;4.85;4.35;;;;;;;;;;6123453;23;20396;-74
2023/04/23 12:06:05;;;;;;;4.60;2.65;;;;;;;;;;6123848;23;20022;-73
2023/04/23 12:08:31;;;;;;;4.00;3.70;;;;;;;;;;6124504;23;20129;-74
2023/04/23 12:11:01;;;;;;;2.20;2.10;;;;;;;;;;6124050;23;20042;-73
2023/04/23 12:13:29;;;;;;;5.20;2.40;;;;;;;;;;6123417;23;20369;-73
2023/04/23 12:15:56;;;;;;;2.25;2.13;;;;;;;;;;6123801;23;20017;-73
2023/04/23 12:18:29;;;;;;;2.55;2.20;;;;;;;;;;6123483;23;20450;-73
2023/04/23 12:20:56;;;;;;;2.40;2.10;;;;;;;;;;6123691;23;20018;-73
2023/04/23 12:23:28;;;;;;;3.35;2.30;;;;;;;;;;6123500;23;20101;-73
2023/04/23 12:25:54;;;;;;;3.38;2.55;;;;;;;;;;6123952;23;20105;-73
2023/04/23 12:28:23;;;;;;;3.15;2.33;;;;;;;;;;6125738;23;20010;-73
2023/04/23 12:30:50;;;;;;;4.50;2.70;;;;;;;;;;6098706;23;20102;-73
2023/04/23 12:33:20;;;;;;;7.32;2.80;;;;;;;;;;6074527;23;20120;-73
2023/04/23 12:35:50;;;;;;;2.88;2.45;;;;;;;;;;6123846;23;20028;-73
2023/04/23 12:38:25;;;;;;;3.25;2.80;;;;;;;;;;6098598;23;20017;-73
2023/04/23 12:40:55;;;;;;;3.50;3.15;;;;;;;;;;6124104;23;20021;-73
2023/04/23 12:43:21;;;;;;;2.95;2.75;;;;;;;;;;6123279;23;20013;-74
2023/04/23 12:45:48;;;;;;;3.28;2.35;;;;;;;;;;6127181;23;20022;-74
2023/04/23 12:48:14;;;;;;;2.05;1.90;;;;;;;;;;6137878;23;20022;-73
2023/04/23 12:50:40;;;;;;;2.70;2.60;;;;;;;;;;6088821;23;20048;-73
2023/04/23 12:53:06;;;;;;;2.33;2.13;;;;;;;;;;6113333;23;20439;-73
2023/04/23 12:55:33;;;;;;;2.58;2.30;;;;;;;;;;6136959;23;20022;-74
2023/04/23 12:57:59;;;;;;;2.97;2.40;;;;;;;;;;6127032;23;20407;-74
2023/04/23 13:00:25;;;;;;;2.17;2.08;;;;;;;;;;6123755;23;20018;-74
2023/04/23 13:02:51;;;;;;;6.07;2.30;;;;;;;;;;6098014;23;20509;-73
2023/04/23 13:05:17;;;;;;;3.28;2.35;;;;;;;;;;6123897;23;20044;-74
2023/04/23 13:07:43;;;;;;;2.42;2.22;;;;;;;;;;6097678;23;20018;-73
2023/04/23 13:10:09;;;;;;;3.67;2.80;;;;;;;;;;6125519;23;20018;-75
2023/04/23 13:12:35;;;;;;;6.57;2.90;;;;;;;;;;6098599;23;20010;-74
2023/04/23 13:15:01;;;;;;;7.60;2.30;;;;;;;;;;6098062;23;20017;-73
2023/04/23 13:17:31;;;;;;;3.10;2.80;;;;;;;;;;6098536;23;20009;-73
2023/04/23 13:19:57;;;;;;;6.63;2.90;;;;;;;;;;6097652;23;20032;-74
2023/04/23 13:22:27;;;;;;;4.65;3.28;;;;;;;;;;6097055;23;20086;-74
2023/04/23 13:24:55;;;;;;;3.85;2.70;;;;;;;;;;6123625;23;20080;-73
2023/04/23 13:27:22;;;;;;;4.68;2.50;;;;;;;;;;6123629;23;20014;-74
2023/04/23 13:29:48;;;;;;;4.45;2.90;;;;;;;;;;6074600;23;20101;-74
2023/04/23 13:32:15;;;;;;;2.60;2.40;;;;;;;;;;6124091;23;20006;-74
2023/04/23 13:34:41;;;;;;;2.33;2.13;;;;;;;;;;6124007;23;20042;-74
2023/04/23 13:37:08;;;;;;;2.30;2.20;;;;;;;;;;6123887;23;20010;-74
2023/04/23 13:39:34;;;;;;;5.78;2.28;;;;;;;;;;6096992;23;20053;-74
2023/04/23 13:42:02;;;;;;;2.58;2.38;;;;;;;;;;6123479;23;20041;-74
2023/04/23 13:44:28;;;;;;;3.60;2.58;;;;;;;;;;6097920;23;20014;-74
2023/04/23 13:46:55;;;;;;;3.28;2.35;;;;;;;;;;6123503;23;20025;-74
2023/04/23 13:49:21;;;;;;;3.28;2.40;;;;;;;;;;6097913;23;20045;-74
2023/04/23 13:51:47;;;;;;;2.97;2.22;;;;;;;;;;6097283;23;20447;-74
2023/04/23 13:54:13;;;;;;;5.40;2.38;;;;;;;;;;6123543;23;20014;-74
2023/04/23 13:56:39;;;;;;;1.98;1.88;;;;;;;;;;6123593;23;20091;-74
2023/04/23 13:59:08;;;;;;;2.55;1.80;;;;;;;;;;6097879;23;20037;-74
2023/04/23 14:01:34;;;;;;;3.10;2.42;;;;;;;;;;6125236;23;20018;-74
2023/04/23 14:04:03;;;;;;;3.20;2.25;;;;;;;;;;6105133;23;20014;-74
2023/04/23 14:06:28;;;;;;;2.00;1.88;;;;;;;;;;6081353;23;20509;-74
2023/04/23 14:08:57;;;;;;;4.13;2.63;;;;;;;;;;6104238;23;20416;-74
2023/04/23 14:11:23;;;;;;;7.68;2.50;;;;;;;;;;6082804;23;20029;-74
2023/04/23 14:13:49;;;;;;;4.35;2.25;;;;;;;;;;6136183;23;20109;-74
2023/04/23 14:16:16;;;;;;;3.83;2.38;;;;;;;;;;6082614;23;20406;-74
2023/04/23 14:18:42;;;;;;;2.35;2.20;;;;;;;;;;6097743;23;20020;-74
2023/04/23 14:21:08;;;;;;;2.65;2.45;;;;;;;;;;6123893;23;20037;-74
2023/04/23 14:23:44;;;;;;;3.15;2.67;;;;;;;;;;6097354;23;20459;-74
2023/04/23 14:26:10;;;;;;;4.13;2.80;;;;;;;;;;6097301;23;20022;-73
2023/04/23 14:28:40;;;;;;;4.82;2.40;;;;;;;;;;6072954;23;20046;-74
2023/04/23 14:31:06;;;;;;;3.33;2.70;;;;;;;;;;6073836;23;20025;-74
2023/04/23 14:33:32;;;;;;;5.93;2.67;;;;;;;;;;6072363;23;20013;-74